Granite Falls, Washington
Current Conditions -  °F | °C
As of 7:35 PM on Friday 28 Nov 2014 (Local Time) from KAWO Reporting Station
Overcast Overcast  
Wind Chill: 37°   Ceiling: 3400
Heat Index: 37°   Visibility: 8mi
Dew Point: 34°   Wind: 3mph
Humidity: 87%   Direction: 160°SSE
Pressure: 29.52"   Gusts: NA
Location:  48.08°N, 121.97°W
Report Text: KAWO 290335Z AUTO 16003KT 8SM FEW027 BKN034 OVC050 03/01 A2952 RMK AO1
Loading
Personal Weather Stations






























Interactive Weather Map New forecast layout! Learn more

10-Day Weather Forecast

Advertisements
Track Severe Weather on mobile